sensor_id;sensor_type;location;lat;lon;timestamp;P1;durP1;ratioP1;P2;durP2;ratioP2
23140;SDS011;11739;54.750;9.124;2022-08-19T00:00:57;11.65;;;8.90;;
23140;SDS011;11739;54.750;9.124;2022-08-19T00:03:25;9.98;;;8.57;;
23140;SDS011;11739;54.750;9.124;2022-08-19T00:05:51;10.00;;;8.10;;
23140;SDS011;11739;54.750;9.124;2022-08-19T00:08:18;13.27;;;8.63;;
23140;SDS011;11739;54.750;9.124;2022-08-19T00:10:44;10.15;;;8.73;;
23140;SDS011;11739;54.750;9.124;2022-08-19T00:13:11;10.48;;;8.85;;
23140;SDS011;11739;54.750;9.124;2022-08-19T00:15:38;12.30;;;9.40;;
23140;SDS011;11739;54.750;9.124;2022-08-19T00:18:05;10.68;;;9.15;;
23140;SDS011;11739;54.750;9.124;2022-08-19T00:20:31;10.15;;;9.00;;
23140;SDS011;11739;54.750;9.124;2022-08-19T00:22:58;12.73;;;9.38;;
23140;SDS011;11739;54.750;9.124;2022-08-19T00:25:24;9.35;;;8.27;;
23140;SDS011;11739;54.750;9.124;2022-08-19T00:27:55;10.05;;;8.75;;
23140;SDS011;11739;54.750;9.124;2022-08-19T00:30:23;11.70;;;9.57;;
23140;SDS011;11739;54.750;9.124;2022-08-19T00:32:49;10.63;;;9.50;;
23140;SDS011;11739;54.750;9.124;2022-08-19T00:35:17;11.60;;;9.52;;
23140;SDS011;11739;54.750;9.124;2022-08-19T00:37:44;13.32;;;9.60;;
23140;SDS011;11739;54.750;9.124;2022-08-19T00:40:11;9.80;;;8.80;;
23140;SDS011;11739;54.750;9.124;2022-08-19T00:42:38;10.50;;;9.00;;
23140;SDS011;11739;54.750;9.124;2022-08-19T00:45:09;12.15;;;8.90;;
23140;SDS011;11739;54.750;9.124;2022-08-19T00:47:40;10.38;;;9.30;;
23140;SDS011;11739;54.750;9.124;2022-08-19T00:50:07;9.65;;;8.65;;
23140;SDS011;11739;54.750;9.124;2022-08-19T00:52:37;12.48;;;9.15;;
23140;SDS011;11739;54.750;9.124;2022-08-19T00:55:07;12.05;;;9.65;;
23140;SDS011;11739;54.750;9.124;2022-08-19T00:57:37;11.00;;;9.23;;
23140;SDS011;11739;54.750;9.124;2022-08-19T01:00:07;13.60;;;9.25;;
23140;SDS011;11739;54.750;9.124;2022-08-19T01:02:38;12.57;;;9.20;;
23140;SDS011;11739;54.750;9.124;2022-08-19T01:05:06;14.52;;;8.70;;
23140;SDS011;11739;54.750;9.124;2022-08-19T01:07:35;9.82;;;8.75;;
23140;SDS011;11739;54.750;9.124;2022-08-19T01:10:05;10.30;;;9.02;;
23140;SDS011;11739;54.750;9.124;2022-08-19T01:12:34;10.43;;;9.02;;
23140;SDS011;11739;54.750;9.124;2022-08-19T01:15:02;10.15;;;8.95;;
23140;SDS011;11739;54.750;9.124;2022-08-19T01:17:29;10.50;;;9.07;;
23140;SDS011;11739;54.750;9.124;2022-08-19T01:19:56;11.10;;;9.48;;
23140;SDS011;11739;54.750;9.124;2022-08-19T01:24:56;12.02;;;9.88;;
23140;SDS011;11739;54.750;9.124;2022-08-19T01:27:24;12.23;;;10.10;;
23140;SDS011;11739;54.750;9.124;2022-08-19T01:29:51;10.98;;;9.27;;
23140;SDS011;11739;54.750;9.124;2022-08-19T01:32:17;11.85;;;10.10;;
23140;SDS011;11739;54.750;9.124;2022-08-19T01:34:59;12.10;;;9.27;;
23140;SDS011;11739;54.750;9.124;2022-08-19T01:37:27;10.23;;;8.95;;
23140;SDS011;11739;54.750;9.124;2022-08-19T01:39:55;11.52;;;9.70;;
23140;SDS011;11739;54.750;9.124;2022-08-19T01:42:22;11.05;;;9.77;;
23140;SDS011;11739;54.750;9.124;2022-08-19T01:47:22;12.98;;;10.18;;
23140;SDS011;11739;54.750;9.124;2022-08-19T01:49:48;12.63;;;9.68;;
23140;SDS011;11739;54.750;9.124;2022-08-19T01:52:15;12.88;;;9.82;;
23140;SDS011;11739;54.750;9.124;2022-08-19T01:54:41;13.13;;;9.98;;
23140;SDS011;11739;54.750;9.124;2022-08-19T01:57:08;11.70;;;9.57;;
23140;SDS011;11739;54.750;9.124;2022-08-19T01:59:37;11.88;;;10.50;;
23140;SDS011;11739;54.750;9.124;2022-08-19T02:02:04;11.02;;;9.65;;
23140;SDS011;11739;54.750;9.124;2022-08-19T02:04:33;12.32;;;10.52;;
23140;SDS011;11739;54.750;9.124;2022-08-19T02:07:00;11.57;;;9.57;;
23140;SDS011;11739;54.750;9.124;2022-08-19T02:09:27;15.18;;;11.02;;
23140;SDS011;11739;54.750;9.124;2022-08-19T02:11:53;12.25;;;10.90;;
23140;SDS011;11739;54.750;9.124;2022-08-19T02:14:20;16.13;;;11.40;;
23140;SDS011;11739;54.750;9.124;2022-08-19T02:16:46;12.70;;;11.07;;
23140;SDS011;11739;54.750;9.124;2022-08-19T02:19:13;16.42;;;11.30;;
23140;SDS011;11739;54.750;9.124;2022-08-19T02:21:39;15.02;;;10.88;;
23140;SDS011;11739;54.750;9.124;2022-08-19T02:24:06;13.52;;;11.05;;
23140;SDS011;11739;54.750;9.124;2022-08-19T02:26:33;16.42;;;12.40;;
23140;SDS011;11739;54.750;9.124;2022-08-19T02:29:00;17.25;;;12.20;;
23140;SDS011;11739;54.750;9.124;2022-08-19T02:31:27;17.70;;;12.00;;
23140;SDS011;11739;54.750;9.124;2022-08-19T02:33:54;17.42;;;11.85;;
23140;SDS011;11739;54.750;9.124;2022-08-19T02:36:22;17.73;;;11.85;;
23140;SDS011;11739;54.750;9.124;2022-08-19T02:38:50;20.00;;;12.88;;
23140;SDS011;11739;54.750;9.124;2022-08-19T02:41:21;20.35;;;12.52;;
23140;SDS011;11739;54.750;9.124;2022-08-19T02:43:52;18.83;;;12.88;;
23140;SDS011;11739;54.750;9.124;2022-08-19T02:46:39;17.50;;;12.10;;
23140;SDS011;11739;54.750;9.124;2022-08-19T02:49:07;16.73;;;12.77;;
23140;SDS011;11739;54.750;9.124;2022-08-19T02:54:02;20.50;;;14.43;;
23140;SDS011;11739;54.750;9.124;2022-08-19T02:56:29;20.38;;;14.27;;
23140;SDS011;11739;54.750;9.124;2022-08-19T02:58:57;18.95;;;13.65;;
23140;SDS011;11739;54.750;9.124;2022-08-19T03:01:25;20.98;;;13.40;;
23140;SDS011;11739;54.750;9.124;2022-08-19T03:03:54;19.60;;;13.40;;
23140;SDS011;11739;54.750;9.124;2022-08-19T03:06:22;19.80;;;13.65;;
23140;SDS011;11739;54.750;9.124;2022-08-19T03:08:49;22.40;;;13.35;;
23140;SDS011;11739;54.750;9.124;2022-08-19T03:11:21;20.13;;;13.68;;
23140;SDS011;11739;54.750;9.124;2022-08-19T03:13:49;22.63;;;14.57;;
23140;SDS011;11739;54.750;9.124;2022-08-19T03:16:17;25.77;;;15.48;;
23140;SDS011;11739;54.750;9.124;2022-08-19T03:18:44;29.33;;;15.85;;
23140;SDS011;11739;54.750;9.124;2022-08-19T03:21:16;26.70;;;15.00;;
23140;SDS011;11739;54.750;9.124;2022-08-19T03:23:46;22.88;;;16.77;;
23140;SDS011;11739;54.750;9.124;2022-08-19T03:26:13;24.73;;;15.73;;
23140;SDS011;11739;54.750;9.124;2022-08-19T03:28:43;24.02;;;15.40;;
23140;SDS011;11739;54.750;9.124;2022-08-19T03:31:18;23.80;;;15.65;;
23140;SDS011;11739;54.750;9.124;2022-08-19T03:34:06;24.95;;;16.58;;
23140;SDS011;11739;54.750;9.124;2022-08-19T03:36:33;21.23;;;15.32;;
23140;SDS011;11739;54.750;9.124;2022-08-19T03:39:00;21.05;;;16.02;;
23140;SDS011;11739;54.750;9.124;2022-08-19T03:41:28;24.60;;;16.42;;
23140;SDS011;11739;54.750;9.124;2022-08-19T03:44:11;25.85;;;17.13;;
23140;SDS011;11739;54.750;9.124;2022-08-19T03:46:45;24.10;;;16.63;;
23140;SDS011;11739;54.750;9.124;2022-08-19T03:49:13;21.20;;;15.60;;
23140;SDS011;11739;54.750;9.124;2022-08-19T03:51:40;21.50;;;15.80;;
23140;SDS011;11739;54.750;9.124;2022-08-19T03:54:10;20.75;;;15.25;;
23140;SDS011;11739;54.750;9.124;2022-08-19T03:56:39;21.73;;;16.90;;
23140;SDS011;11739;54.750;9.124;2022-08-19T03:59:09;21.88;;;15.55;;
23140;SDS011;11739;54.750;9.124;2022-08-19T04:01:38;21.15;;;15.57;;
23140;SDS011;11739;54.750;9.124;2022-08-19T04:04:05;18.98;;;15.07;;
23140;SDS011;11739;54.750;9.124;2022-08-19T04:06:33;16.67;;;14.93;;
23140;SDS011;11739;54.750;9.124;2022-08-19T04:09:05;24.30;;;16.57;;
23140;SDS011;11739;54.750;9.124;2022-08-19T04:11:34;18.75;;;15.25;;
23140;SDS011;11739;54.750;9.124;2022-08-19T04:14:20;20.05;;;16.10;;
23140;SDS011;11739;54.750;9.124;2022-08-19T04:16:48;19.50;;;15.52;;
23140;SDS011;11739;54.750;9.124;2022-08-19T04:19:15;20.30;;;15.65;;
23140;SDS011;11739;54.750;9.124;2022-08-19T04:21:44;20.55;;;16.60;;
23140;SDS011;11739;54.750;9.124;2022-08-19T04:24:12;20.60;;;16.35;;
23140;SDS011;11739;54.750;9.124;2022-08-19T04:26:38;19.38;;;15.60;;
23140;SDS011;11739;54.750;9.124;2022-08-19T04:29:06;17.95;;;15.77;;
23140;SDS011;11739;54.750;9.124;2022-08-19T04:31:38;18.33;;;15.45;;
23140;SDS011;11739;54.750;9.124;2022-08-19T04:34:06;20.33;;;16.05;;
23140;SDS011;11739;54.750;9.124;2022-08-19T04:36:34;19.38;;;15.75;;
23140;SDS011;11739;54.750;9.124;2022-08-19T04:39:05;18.88;;;15.85;;
23140;SDS011;11739;54.750;9.124;2022-08-19T04:41:36;16.73;;;14.38;;
23140;SDS011;11739;54.750;9.124;2022-08-19T04:44:21;18.08;;;15.82;;
23140;SDS011;11739;54.750;9.124;2022-08-19T04:46:48;19.50;;;15.60;;
23140;SDS011;11739;54.750;9.124;2022-08-19T04:49:18;20.25;;;15.70;;
23140;SDS011;11739;54.750;9.124;2022-08-19T04:51:48;18.90;;;15.88;;
23140;SDS011;11739;54.750;9.124;2022-08-19T04:54:16;18.33;;;15.35;;
23140;SDS011;11739;54.750;9.124;2022-08-19T04:57:03;18.50;;;15.82;;
23140;SDS011;11739;54.750;9.124;2022-08-19T04:59:32;17.13;;;14.93;;
23140;SDS011;11739;54.750;9.124;2022-08-19T05:01:59;16.80;;;14.88;;
23140;SDS011;11739;54.750;9.124;2022-08-19T05:04:26;17.67;;;15.43;;
23140;SDS011;11739;54.750;9.124;2022-08-19T05:06:54;19.27;;;15.88;;
23140;SDS011;11739;54.750;9.124;2022-08-19T05:09:26;18.42;;;15.48;;
23140;SDS011;11739;54.750;9.124;2022-08-19T05:11:53;18.67;;;16.25;;
23140;SDS011;11739;54.750;9.124;2022-08-19T05:14:19;19.75;;;16.40;;
23140;SDS011;11739;54.750;9.124;2022-08-19T05:16:47;17.98;;;15.75;;
23140;SDS011;11739;54.750;9.124;2022-08-19T05:19:13;19.27;;;16.23;;
23140;SDS011;11739;54.750;9.124;2022-08-19T05:21:59;19.55;;;15.98;;
23140;SDS011;11739;54.750;9.124;2022-08-19T05:24:44;18.88;;;15.02;;
23140;SDS011;11739;54.750;9.124;2022-08-19T05:27:31;18.70;;;16.48;;
23140;SDS011;11739;54.750;9.124;2022-08-19T05:29:58;22.17;;;17.42;;
23140;SDS011;11739;54.750;9.124;2022-08-19T05:32:25;19.60;;;17.50;;
23140;SDS011;11739;54.750;9.124;2022-08-19T05:34:52;20.85;;;16.75;;
23140;SDS011;11739;54.750;9.124;2022-08-19T05:37:18;19.45;;;16.83;;
23140;SDS011;11739;54.750;9.124;2022-08-19T05:39:45;20.23;;;16.67;;
23140;SDS011;11739;54.750;9.124;2022-08-19T05:42:16;19.08;;;15.80;;
23140;SDS011;11739;54.750;9.124;2022-08-19T05:44:43;21.52;;;18.13;;
23140;SDS011;11739;54.750;9.124;2022-08-19T05:47:11;20.08;;;16.77;;
23140;SDS011;11739;54.750;9.124;2022-08-19T05:49:38;20.48;;;16.42;;
23140;SDS011;11739;54.750;9.124;2022-08-19T05:52:05;18.70;;;16.63;;
23140;SDS011;11739;54.750;9.124;2022-08-19T05:54:34;23.65;;;18.65;;
23140;SDS011;11739;54.750;9.124;2022-08-19T05:57:02;20.05;;;16.85;;
23140;SDS011;11739;54.750;9.124;2022-08-19T05:59:28;21.17;;;16.52;;
23140;SDS011;11739;54.750;9.124;2022-08-19T06:01:56;20.58;;;17.10;;
23140;SDS011;11739;54.750;9.124;2022-08-19T06:04:23;24.55;;;18.75;;
23140;SDS011;11739;54.750;9.124;2022-08-19T06:06:50;22.05;;;17.40;;
23140;SDS011;11739;54.750;9.124;2022-08-19T06:09:18;23.30;;;17.95;;
23140;SDS011;11739;54.750;9.124;2022-08-19T06:11:46;21.65;;;16.90;;
23140;SDS011;11739;54.750;9.124;2022-08-19T06:14:23;18.75;;;16.73;;
23140;SDS011;11739;54.750;9.124;2022-08-19T06:16:53;21.67;;;17.83;;
23140;SDS011;11739;54.750;9.124;2022-08-19T06:19:20;21.75;;;18.05;;
23140;SDS011;11739;54.750;9.124;2022-08-19T06:21:48;26.38;;;18.75;;
23140;SDS011;11739;54.750;9.124;2022-08-19T06:24:18;21.98;;;17.50;;
23140;SDS011;11739;54.750;9.124;2022-08-19T06:26:46;23.40;;;19.08;;
23140;SDS011;11739;54.750;9.124;2022-08-19T06:29:19;20.48;;;17.25;;
23140;SDS011;11739;54.750;9.124;2022-08-19T06:31:50;23.33;;;18.17;;
23140;SDS011;11739;54.750;9.124;2022-08-19T06:34:18;24.23;;;18.55;;
23140;SDS011;11739;54.750;9.124;2022-08-19T06:36:47;22.55;;;17.92;;
23140;SDS011;11739;54.750;9.124;2022-08-19T06:39:16;22.10;;;17.73;;
23140;SDS011;11739;54.750;9.124;2022-08-19T06:44:22;21.02;;;17.30;;
23140;SDS011;11739;54.750;9.124;2022-08-19T06:46:51;21.50;;;17.73;;
23140;SDS011;11739;54.750;9.124;2022-08-19T06:49:20;21.63;;;17.08;;
23140;SDS011;11739;54.750;9.124;2022-08-19T06:51:48;19.65;;;16.75;;
23140;SDS011;11739;54.750;9.124;2022-08-19T06:54:17;20.92;;;17.33;;
23140;SDS011;11739;54.750;9.124;2022-08-19T06:56:45;19.73;;;16.33;;
23140;SDS011;11739;54.750;9.124;2022-08-19T06:59:13;19.30;;;16.83;;
23140;SDS011;11739;54.750;9.124;2022-08-19T07:01:52;20.48;;;16.67;;
23140;SDS011;11739;54.750;9.124;2022-08-19T07:04:29;19.60;;;16.50;;
23140;SDS011;11739;54.750;9.124;2022-08-19T07:07:07;18.38;;;16.38;;
23140;SDS011;11739;54.750;9.124;2022-08-19T07:09:47;18.63;;;16.60;;
23140;SDS011;11739;54.750;9.124;2022-08-19T07:12:26;19.00;;;16.92;;
23140;SDS011;11739;54.750;9.124;2022-08-19T07:14:56;20.08;;;17.52;;
23140;SDS011;11739;54.750;9.124;2022-08-19T07:17:23;19.35;;;16.63;;
23140;SDS011;11739;54.750;9.124;2022-08-19T07:19:50;20.85;;;16.88;;
23140;SDS011;11739;54.750;9.124;2022-08-19T07:22:20;18.95;;;16.95;;
23140;SDS011;11739;54.750;9.124;2022-08-19T07:24:49;18.88;;;16.50;;
23140;SDS011;11739;54.750;9.124;2022-08-19T07:27:17;18.92;;;16.85;;
23140;SDS011;11739;54.750;9.124;2022-08-19T07:29:50;20.45;;;17.20;;
23140;SDS011;11739;54.750;9.124;2022-08-19T07:32:22;17.70;;;15.52;;
23140;SDS011;11739;54.750;9.124;2022-08-19T07:34:48;18.50;;;16.48;;
23140;SDS011;11739;54.750;9.124;2022-08-19T07:37:15;18.90;;;16.63;;
23140;SDS011;11739;54.750;9.124;2022-08-19T07:39:42;18.58;;;15.68;;
23140;SDS011;11739;54.750;9.124;2022-08-19T07:42:09;18.63;;;16.40;;
23140;SDS011;11739;54.750;9.124;2022-08-19T07:44:38;18.70;;;16.73;;
23140;SDS011;11739;54.750;9.124;2022-08-19T07:47:10;18.30;;;16.40;;
23140;SDS011;11739;54.750;9.124;2022-08-19T07:49:56;16.67;;;14.98;;
23140;SDS011;11739;54.750;9.124;2022-08-19T07:52:23;17.35;;;15.55;;
23140;SDS011;11739;54.750;9.124;2022-08-19T07:54:49;16.98;;;15.27;;
23140;SDS011;11739;54.750;9.124;2022-08-19T07:57:16;15.95;;;14.35;;
23140;SDS011;11739;54.750;9.124;2022-08-19T07:59:43;17.45;;;14.98;;
23140;SDS011;11739;54.750;9.124;2022-08-19T08:02:09;16.77;;;15.00;;
23140;SDS011;11739;54.750;9.124;2022-08-19T08:04:36;17.17;;;15.52;;
23140;SDS011;11739;54.750;9.124;2022-08-19T08:07:21;16.10;;;14.48;;
23140;SDS011;11739;54.750;9.124;2022-08-19T08:10:11;15.15;;;13.65;;
23140;SDS011;11739;54.750;9.124;2022-08-19T08:12:47;15.57;;;14.00;;
23140;SDS011;11739;54.750;9.124;2022-08-19T08:15:34;15.07;;;13.68;;
23140;SDS011;11739;54.750;9.124;2022-08-19T08:18:07;14.43;;;13.00;;
23140;SDS011;11739;54.750;9.124;2022-08-19T08:20:34;13.80;;;12.40;;
23140;SDS011;11739;54.750;9.124;2022-08-19T08:23:00;13.13;;;11.85;;
23140;SDS011;11739;54.750;9.124;2022-08-19T08:25:46;13.93;;;12.52;;
23140;SDS011;11739;54.750;9.124;2022-08-19T08:28:14;12.77;;;11.60;;
23140;SDS011;11739;54.750;9.124;2022-08-19T08:30:43;13.18;;;11.95;;
23140;SDS011;11739;54.750;9.124;2022-08-19T08:33:11;11.95;;;10.75;;
23140;SDS011;11739;54.750;9.124;2022-08-19T08:35:39;12.48;;;11.38;;
23140;SDS011;11739;54.750;9.124;2022-08-19T08:38:07;11.63;;;10.52;;
23140;SDS011;11739;54.750;9.124;2022-08-19T08:40:38;12.82;;;11.63;;
23140;SDS011;11739;54.750;9.124;2022-08-19T08:43:27;12.43;;;11.23;;
23140;SDS011;11739;54.750;9.124;2022-08-19T08:46:05;11.27;;;10.18;;
23140;SDS011;11739;54.750;9.124;2022-08-19T08:48:39;12.88;;;11.50;;
23140;SDS011;11739;54.750;9.124;2022-08-19T08:51:18;12.43;;;11.32;;
23140;SDS011;11739;54.750;9.124;2022-08-19T08:53:48;11.68;;;10.57;;
23140;SDS011;11739;54.750;9.124;2022-08-19T08:56:21;11.45;;;10.38;;
23140;SDS011;11739;54.750;9.124;2022-08-19T08:58:58;12.80;;;11.50;;
23140;SDS011;11739;54.750;9.124;2022-08-19T09:01:28;11.82;;;10.73;;
23140;SDS011;11739;54.750;9.124;2022-08-19T09:03:56;12.13;;;10.95;;
23140;SDS011;11739;54.750;9.124;2022-08-19T09:14:44;10.55;;;9.55;;
23140;SDS011;11739;54.750;9.124;2022-08-19T09:17:18;10.38;;;9.48;;
23140;SDS011;11739;54.750;9.124;2022-08-19T09:19:58;12.27;;;11.27;;
23140;SDS011;11739;54.750;9.124;2022-08-19T09:22:34;12.05;;;10.95;;
23140;SDS011;11739;54.750;9.124;2022-08-19T09:25:06;11.50;;;10.35;;
23140;SDS011;11739;54.750;9.124;2022-08-19T09:27:35;9.52;;;8.65;;
23140;SDS011;11739;54.750;9.124;2022-08-19T09:30:19;11.23;;;10.23;;
23140;SDS011;11739;54.750;9.124;2022-08-19T09:32:47;9.75;;;8.88;;
23140;SDS011;11739;54.750;9.124;2022-08-19T09:35:19;9.82;;;8.93;;
23140;SDS011;11739;54.750;9.124;2022-08-19T09:37:49;12.27;;;11.20;;
23140;SDS011;11739;54.750;9.124;2022-08-19T09:40:23;11.05;;;10.05;;
23140;SDS011;11739;54.750;9.124;2022-08-19T09:42:50;10.48;;;9.57;;
23140;SDS011;11739;54.750;9.124;2022-08-19T09:45:20;9.77;;;8.80;;
23140;SDS011;11739;54.750;9.124;2022-08-19T09:47:49;9.50;;;8.63;;
23140;SDS011;11739;54.750;9.124;2022-08-19T09:50:20;9.40;;;8.60;;
23140;SDS011;11739;54.750;9.124;2022-08-19T09:52:47;9.73;;;8.93;;
23140;SDS011;11739;54.750;9.124;2022-08-19T09:55:23;9.55;;;8.75;;
23140;SDS011;11739;54.750;9.124;2022-08-19T09:57:58;10.50;;;9.60;;
23140;SDS011;11739;54.750;9.124;2022-08-19T10:00:27;9.15;;;8.35;;
23140;SDS011;11739;54.750;9.124;2022-08-19T10:02:54;11.45;;;10.30;;
23140;SDS011;11739;54.750;9.124;2022-08-19T10:05:21;9.57;;;8.77;;
23140;SDS011;11739;54.750;9.124;2022-08-19T10:08:07;10.45;;;9.55;;
23140;SDS011;11739;54.750;9.124;2022-08-19T10:10:39;10.18;;;9.27;;
23140;SDS011;11739;54.750;9.124;2022-08-19T10:13:12;8.93;;;8.23;;
23140;SDS011;11739;54.750;9.124;2022-08-19T10:15:40;10.38;;;9.48;;
23140;SDS011;11739;54.750;9.124;2022-08-19T10:18:13;8.95;;;8.15;;
23140;SDS011;11739;54.750;9.124;2022-08-19T10:20:41;10.70;;;9.80;;
23140;SDS011;11739;54.750;9.124;2022-08-19T10:23:08;10.13;;;9.23;;
23140;SDS011;11739;54.750;9.124;2022-08-19T10:25:35;10.35;;;9.55;;
23140;SDS011;11739;54.750;9.124;2022-08-19T10:28:03;10.63;;;9.77;;
23140;SDS011;11739;54.750;9.124;2022-08-19T10:30:36;8.60;;;7.90;;
23140;SDS011;11739;54.750;9.124;2022-08-19T10:33:03;7.60;;;7.00;;
23140;SDS011;11739;54.750;9.124;2022-08-19T10:35:36;8.82;;;8.02;;
23140;SDS011;11739;54.750;9.124;2022-08-19T10:38:22;8.43;;;7.72;;
23140;SDS011;11739;54.750;9.124;2022-08-19T10:40:58;8.80;;;8.07;;
23140;SDS011;11739;54.750;9.124;2022-08-19T10:43:32;7.80;;;7.18;;
23140;SDS011;11739;54.750;9.124;2022-08-19T10:46:05;8.00;;;7.40;;
23140;SDS011;11739;54.750;9.124;2022-08-19T10:48:39;8.98;;;8.23;;
23140;SDS011;11739;54.750;9.124;2022-08-19T10:51:06;8.60;;;7.90;;
23140;SDS011;11739;54.750;9.124;2022-08-19T10:53:52;9.68;;;8.77;;
23140;SDS011;11739;54.750;9.124;2022-08-19T10:56:19;9.05;;;8.35;;
23140;SDS011;11739;54.750;9.124;2022-08-19T10:59:04;9.07;;;8.27;;
23140;SDS011;11739;54.750;9.124;2022-08-19T11:01:31;9.00;;;8.30;;
23140;SDS011;11739;54.750;9.124;2022-08-19T11:04:00;8.98;;;8.27;;
23140;SDS011;11739;54.750;9.124;2022-08-19T11:06:27;8.55;;;7.85;;
23140;SDS011;11739;54.750;9.124;2022-08-19T11:08:54;8.40;;;7.70;;
23140;SDS011;11739;54.750;9.124;2022-08-19T11:11:22;8.45;;;7.75;;
23140;SDS011;11739;54.750;9.124;2022-08-19T11:13:49;10.43;;;9.52;;
23140;SDS011;11739;54.750;9.124;2022-08-19T11:16:17;8.75;;;8.05;;
23140;SDS011;11739;54.750;9.124;2022-08-19T11:18:48;10.13;;;9.32;;
23140;SDS011;11739;54.750;9.124;2022-08-19T11:21:23;10.95;;;10.05;;
23140;SDS011;11739;54.750;9.124;2022-08-19T11:24:05;9.80;;;8.93;;
23140;SDS011;11739;54.750;9.124;2022-08-19T11:27:06;8.77;;;8.07;;
23140;SDS011;11739;54.750;9.124;2022-08-19T11:29:37;8.10;;;7.50;;
23140;SDS011;11739;54.750;9.124;2022-08-19T11:32:05;9.05;;;8.25;;
23140;SDS011;11739;54.750;9.124;2022-08-19T11:34:34;9.35;;;8.55;;
23140;SDS011;11739;54.750;9.124;2022-08-19T11:37:02;9.00;;;8.20;;
23140;SDS011;11739;54.750;9.124;2022-08-19T11:39:30;9.43;;;8.63;;
23140;SDS011;11739;54.750;9.124;2022-08-19T11:41:58;9.23;;;8.43;;
23140;SDS011;11739;54.750;9.124;2022-08-19T11:44:50;8.32;;;7.63;;
23140;SDS011;11739;54.750;9.124;2022-08-19T11:47:17;7.60;;;7.00;;
23140;SDS011;11739;54.750;9.124;2022-08-19T11:49:43;8.98;;;8.18;;
23140;SDS011;11739;54.750;9.124;2022-08-19T11:52:12;9.00;;;8.20;;
23140;SDS011;11739;54.750;9.124;2022-08-19T11:54:38;8.32;;;7.53;;
23140;SDS011;11739;54.750;9.124;2022-08-19T11:57:05;7.68;;;7.05;;
23140;SDS011;11739;54.750;9.124;2022-08-19T11:59:31;78.30;;;31.05;;
23140;SDS011;11739;54.750;9.124;2022-08-19T12:01:58;18.85;;;10.68;;
23140;SDS011;11739;54.750;9.124;2022-08-19T12:04:25;9.20;;;8.40;;
23140;SDS011;11739;54.750;9.124;2022-08-19T12:06:51;9.07;;;8.35;;
23140;SDS011;11739;54.750;9.124;2022-08-19T12:09:19;8.00;;;7.40;;
23140;SDS011;11739;54.750;9.124;2022-08-19T12:11:45;7.53;;;6.93;;
23140;SDS011;11739;54.750;9.124;2022-08-19T12:14:12;8.82;;;8.02;;
23140;SDS011;11739;54.750;9.124;2022-08-19T12:16:40;8.88;;;8.05;;
23140;SDS011;11739;54.750;9.124;2022-08-19T12:19:17;7.35;;;6.70;;
23140;SDS011;11739;54.750;9.124;2022-08-19T12:21:47;8.40;;;7.68;;
23140;SDS011;11739;54.750;9.124;2022-08-19T12:24:15;7.25;;;6.75;;
23140;SDS011;11739;54.750;9.124;2022-08-19T12:26:41;8.27;;;7.45;;
23140;SDS011;11739;54.750;9.124;2022-08-19T12:29:18;8.23;;;7.53;;
23140;SDS011;11739;54.750;9.124;2022-08-19T12:31:49;7.25;;;6.75;;
23140;SDS011;11739;54.750;9.124;2022-08-19T12:34:15;7.90;;;7.15;;
23140;SDS011;11739;54.750;9.124;2022-08-19T12:36:42;7.93;;;7.32;;
23140;SDS011;11739;54.750;9.124;2022-08-19T12:39:08;10.55;;;9.63;;
23140;SDS011;11739;54.750;9.124;2022-08-19T12:41:36;8.35;;;7.55;;
23140;SDS011;11739;54.750;9.124;2022-08-19T12:44:16;8.32;;;7.72;;
23140;SDS011;11739;54.750;9.124;2022-08-19T12:46:45;10.27;;;9.48;;
23140;SDS011;11739;54.750;9.124;2022-08-19T12:49:18;9.00;;;8.20;;
23140;SDS011;11739;54.750;9.124;2022-08-19T12:52:05;7.80;;;7.20;;
23140;SDS011;11739;54.750;9.124;2022-08-19T12:54:34;8.63;;;7.95;;
23140;SDS011;11739;54.750;9.124;2022-08-19T12:57:05;8.43;;;7.78;;
23140;SDS011;11739;54.750;9.124;2022-08-19T12:59:34;8.93;;;8.23;;
23140;SDS011;11739;54.750;9.124;2022-08-19T13:02:03;8.30;;;7.60;;
23140;SDS011;11739;54.750;9.124;2022-08-19T13:04:32;10.40;;;9.60;;
23140;SDS011;11739;54.750;9.124;2022-08-19T13:07:07;8.60;;;7.90;;
23140;SDS011;11739;54.750;9.124;2022-08-19T13:09:35;11.38;;;10.45;;
23140;SDS011;11739;54.750;9.124;2022-08-19T13:12:02;9.93;;;9.02;;
23140;SDS011;11739;54.750;9.124;2022-08-19T13:14:34;9.63;;;8.73;;
23140;SDS011;11739;54.750;9.124;2022-08-19T13:17:02;10.18;;;9.35;;
23140;SDS011;11739;54.750;9.124;2022-08-19T13:19:28;11.88;;;10.90;;
23140;SDS011;11739;54.750;9.124;2022-08-19T13:21:56;10.32;;;9.43;;
23140;SDS011;11739;54.750;9.124;2022-08-19T13:24:25;10.18;;;9.27;;
23140;SDS011;11739;54.750;9.124;2022-08-19T13:26:59;7.85;;;7.20;;
23140;SDS011;11739;54.750;9.124;2022-08-19T13:29:26;9.02;;;8.32;;
23140;SDS011;11739;54.750;9.124;2022-08-19T13:32:11;8.32;;;7.60;;
23140;SDS011;11739;54.750;9.124;2022-08-19T13:34:57;8.45;;;7.70;;
23140;SDS011;11739;54.750;9.124;2022-08-19T13:37:23;9.10;;;8.40;;
23140;SDS011;11739;54.750;9.124;2022-08-19T13:40:10;8.80;;;8.10;;
23140;SDS011;11739;54.750;9.124;2022-08-19T13:42:43;10.57;;;8.68;;
23140;SDS011;11739;54.750;9.124;2022-08-19T13:45:10;9.73;;;8.82;;
23140;SDS011;11739;54.750;9.124;2022-08-19T13:47:37;9.05;;;8.35;;
23140;SDS011;11739;54.750;9.124;2022-08-19T13:50:09;8.02;;;7.38;;
23140;SDS011;11739;54.750;9.124;2022-08-19T13:52:37;7.90;;;7.20;;
23140;SDS011;11739;54.750;9.124;2022-08-19T13:55:04;10.25;;;9.25;;
23140;SDS011;11739;54.750;9.124;2022-08-19T13:57:32;9.85;;;8.95;;
23140;SDS011;11739;54.750;9.124;2022-08-19T13:59:59;8.43;;;7.70;;
23140;SDS011;11739;54.750;9.124;2022-08-19T14:02:26;7.85;;;7.15;;
23140;SDS011;11739;54.750;9.124;2022-08-19T14:04:52;8.88;;;8.07;;
23140;SDS011;11739;54.750;9.124;2022-08-19T14:07:19;8.23;;;7.53;;
23140;SDS011;11739;54.750;9.124;2022-08-19T14:09:46;8.43;;;7.72;;
23140;SDS011;11739;54.750;9.124;2022-08-19T14:12:14;8.98;;;8.07;;
23140;SDS011;11739;54.750;9.124;2022-08-19T14:14:54;7.93;;;7.22;;
23140;SDS011;11739;54.750;9.124;2022-08-19T14:17:20;8.25;;;7.63;;
23140;SDS011;11739;54.750;9.124;2022-08-19T14:19:47;8.60;;;7.80;;
23140;SDS011;11739;54.750;9.124;2022-08-19T14:22:14;8.18;;;7.47;;
23140;SDS011;11739;54.750;9.124;2022-08-19T14:24:47;10.55;;;9.48;;
23140;SDS011;11739;54.750;9.124;2022-08-19T14:27:14;8.68;;;7.97;;
23140;SDS011;11739;54.750;9.124;2022-08-19T14:29:40;8.10;;;7.40;;
23140;SDS011;11739;54.750;9.124;2022-08-19T14:32:07;7.93;;;7.22;;
23140;SDS011;11739;54.750;9.124;2022-08-19T14:34:41;6.50;;;5.90;;
23140;SDS011;11739;54.750;9.124;2022-08-19T14:37:08;6.53;;;5.82;;
23140;SDS011;11739;54.750;9.124;2022-08-19T14:39:40;4.53;;;4.13;;
23140;SDS011;11739;54.750;9.124;2022-08-19T14:42:07;5.60;;;5.10;;
23140;SDS011;11739;54.750;9.124;2022-08-19T14:44:36;4.25;;;3.95;;
23140;SDS011;11739;54.750;9.124;2022-08-19T14:47:03;4.60;;;4.20;;
23140;SDS011;11739;54.750;9.124;2022-08-19T14:49:30;5.88;;;4.47;;
23140;SDS011;11739;54.750;9.124;2022-08-19T14:52:00;5.03;;;4.60;;
23140;SDS011;11739;54.750;9.124;2022-08-19T14:54:27;4.93;;;3.90;;
23140;SDS011;11739;54.750;9.124;2022-08-19T14:56:55;3.95;;;3.65;;
23140;SDS011;11739;54.750;9.124;2022-08-19T14:59:22;4.07;;;3.53;;
23140;SDS011;11739;54.750;9.124;2022-08-19T15:01:49;3.58;;;3.08;;
23140;SDS011;11739;54.750;9.124;2022-08-19T15:04:15;4.20;;;3.30;;
23140;SDS011;11739;54.750;9.124;2022-08-19T15:06:42;2.63;;;2.42;;